Time;durP1;ratioP1;P1;durP2;ratioP2;P2;SDS_P1;SDS_P2;PMS_P1;PMS_P2;Temp;Humidity;BMP_temperature;BMP_pressure;BME280_temperature;BME280_humidity;BME280_pressure;Samples;Min_cycle;Max_cycle;Signal;HPM_P1;HPM_P2
2023/03/10 00:01:21;;;;;;;;;;;18.30;78.40;;;;;;5020589;28;43549;-83
2023/03/10 00:03:47;;;;;;;;;;;18.10;77.00;;;;;;5023555;28;43324;-86
2023/03/10 00:06:13;;;;;;;;;;;18.30;78.70;;;;;;5023547;28;42965;-85
2023/03/10 00:08:39;;;;;;;;;;;18.40;78.70;;;;;;5023584;28;43084;-85
2023/03/10 00:11:05;;;;;;;;;;;18.30;78.70;;;;;;5023962;28;43973;-86
2023/03/10 00:13:30;;;;;;;;;;;18.30;78.80;;;;;;5024249;28;43045;-84
2023/03/10 00:15:56;;;;;;;;;;;18.50;79.00;;;;;;5021508;28;43126;-83
2023/03/10 00:18:21;;;;;;;;;;;18.30;78.50;;;;;;5021438;28;43130;-78
2023/03/10 00:20:49;;;;;;;;;;;18.20;79.00;;;;;;5023053;28;43145;-77
2023/03/10 00:23:15;;;;;;;;;;;18.20;79.10;;;;;;5025394;28;42891;-78
2023/03/10 00:25:40;;;;;;;;;;;18.40;79.20;;;;;;5023249;28;42966;-78
2023/03/10 00:28:06;;;;;;;;;;;18.40;79.40;;;;;;5013478;28;42849;-77
2023/03/10 00:30:34;;;;;;;;;;;18.20;79.30;;;;;;5005089;28;43493;-77
2023/03/10 00:33:00;;;;;;;;;;;18.30;79.30;;;;;;5010734;28;43180;-77
2023/03/10 00:35:25;;;;;;;;;;;18.30;79.40;;;;;;5015516;28;43718;-77
2023/03/10 00:37:51;;;;;;;;;;;18.40;79.70;;;;;;5005788;28;43367;-76
2023/03/10 00:40:16;;;;;;;;;;;18.10;79.50;;;;;;5005292;28;42989;-77
2023/03/10 00:42:43;;;;;;;;;;;18.20;79.60;;;;;;5024911;28;42937;-76
2023/03/10 00:45:09;;;;;;;;;;;18.30;79.90;;;;;;5024181;28;42998;-78
2023/03/10 00:47:34;;;;;;;;;;;18.40;80.00;;;;;;5024122;28;42912;-78
2023/03/10 00:50:00;;;;;;;;;;;18.20;80.00;;;;;;5022139;28;43759;-77
2023/03/10 00:52:26;;;;;;;;;;;18.30;79.80;;;;;;5023145;28;44983;-77
2023/03/10 00:54:52;;;;;;;;;;;18.30;80.10;;;;;;5022940;28;43857;-77
2023/03/10 00:57:18;;;;;;;;;;;18.30;81.00;;;;;;5024338;28;43127;-79
2023/03/10 00:59:44;;;;;;;;;;;;;;;;;;5023734;28;43041;-77
2023/03/10 01:02:09;;;;;;;;;;;;;;;;;;5020557;28;43069;-77
2023/03/10 01:04:35;;;;;;;;;;;18.10;78.50;;;;;;5021535;28;43557;-77
2023/03/10 01:07:00;;;;;;;;;;;18.20;78.40;;;;;;5023248;28;43178;-77
2023/03/10 01:09:26;;;;;;;;;;;18.30;79.00;;;;;;5003434;28;43555;-78
2023/03/10 01:11:51;;;;;;;;;;;18.40;78.80;;;;;;5020899;28;42917;-77
2023/03/10 01:14:17;;;;;;;;;;;18.20;78.30;;;;;;5024224;28;43847;-77
2023/03/10 01:16:43;;;;;;;;;;;18.40;78.80;;;;;;5012523;28;43364;-77
2023/03/10 01:19:09;;;;;;;;;;;18.10;78.80;;;;;;5012875;28;43431;-77
2023/03/10 01:21:36;;;;;;;;;;;18.20;78.80;;;;;;5008610;28;43184;-78
2023/03/10 01:24:01;;;;;;;;;;;18.20;78.30;;;;;;5003240;28;45454;-78
2023/03/10 01:26:27;;;;;;;;;;;18.20;79.10;;;;;;5003857;28;42955;-85
2023/03/10 01:28:53;;;;;;;;;;;18.30;79.10;;;;;;5002001;28;43143;-90
2023/03/10 01:31:18;;;;;;;;;;;18.30;79.10;;;;;;5001967;28;42901;-88
2023/03/10 01:33:44;;;;;;;;;;;18.30;79.00;;;;;;5003753;28;43046;-84
2023/03/10 01:36:15;;;;;;;;;;;18.30;78.60;;;;;;5003534;28;42874;-84
2023/03/10 01:38:41;;;;;;;;;;;18.30;79.10;;;;;;5002702;28;42910;-89
2023/03/10 01:41:06;;;;;;;;;;;18.30;79.10;;;;;;5001860;28;43653;-91
2023/03/10 01:43:32;;;;;;;;;;;;;;;;;;5004759;28;43565;-88
2023/03/10 01:46:01;;;;;;;;;;;18.40;78.30;;;;;;5004060;28;42904;-90
2023/03/10 01:48:27;;;;;;;;;;;18.20;78.10;;;;;;5004186;28;43027;-90
2023/03/10 01:50:54;;;;;;;;;;;18.30;79.30;;;;;;5003589;28;42984;-89
2023/03/10 01:53:20;;;;;;;;;;;18.20;79.40;;;;;;5005278;28;43632;-87
2023/03/10 01:55:51;;;;;;;;;;;18.30;79.40;;;;;;5021756;28;42986;-90
2023/03/10 01:58:19;;;;;;;;;;;18.30;78.20;;;;;;5023988;28;43592;-90
2023/03/10 02:00:44;;;;;;;;;;;18.30;79.40;;;;;;5023774;28;42904;-93
2023/03/10 02:03:18;;;;;;;;;;;18.30;79.00;;;;;;5022507;28;43085;-93
2023/03/10 02:05:54;;;;;;;;;;;18.30;78.40;;;;;;5003844;28;42941;-93
2023/03/10 02:08:21;;;;;;;;;;;18.30;78.40;;;;;;5005538;28;43033;-93
2023/03/10 02:10:47;;;;;;;;;;;18.20;79.00;;;;;;5022906;28;42971;-91
2023/03/10 02:13:12;;;;;;;;;;;18.20;80.00;;;;;;5017538;28;42967;-88
2023/03/10 02:15:38;;;;;;;;;;;18.50;79.90;;;;;;5022699;28;42886;-89
2023/03/10 02:18:05;;;;;;;;;;;18.30;79.80;;;;;;5022687;28;42985;-90
2023/03/10 02:20:49;;;;;;;;;;;18.20;79.80;;;;;;5023177;28;42912;-89
2023/03/10 02:23:18;;;;;;;;;;;18.20;78.60;;;;;;5006904;28;42942;-91
2023/03/10 02:25:59;;;;;;;;;;;18.30;80.10;;;;;;5004945;28;43015;-88
2023/03/10 02:28:25;;;;;;;;;;;18.40;78.90;;;;;;5010291;28;42931;-90
2023/03/10 02:30:51;;;;;;;;;;;18.20;80.40;;;;;;5024136;28;42755;-89
2023/03/10 02:33:24;;;;;;;;;;;18.40;80.80;;;;;;5024098;28;43312;-90
2023/03/10 02:35:50;;;;;;;;;;;18.30;80.00;;;;;;5021268;28;42832;-90
2023/03/10 02:38:15;;;;;;;;;;;;;;;;;;5006903;28;43115;-86
2023/03/10 02:40:48;;;;;;;;;;;18.30;81.60;;;;;;5017290;28;42924;-80
2023/03/10 02:43:19;;;;;;;;;;;18.30;80.60;;;;;;5021203;28;43108;-79
2023/03/10 02:45:46;;;;;;;;;;;18.40;81.80;;;;;;5005194;28;44040;-79
2023/03/10 02:48:14;;;;;;;;;;;18.30;82.50;;;;;;5005198;28;42985;-79
2023/03/10 02:50:41;;;;;;;;;;;18.20;82.20;;;;;;5013166;28;43005;-79
2023/03/10 02:53:10;;;;;;;;;;;18.40;83.20;;;;;;5021504;28;42911;-79
2023/03/10 02:55:36;;;;;;;;;;;18.30;83.30;;;;;;5025504;28;42959;-80
2023/03/10 02:58:02;;;;;;;;;;;18.30;83.10;;;;;;5026640;28;42927;-80
2023/03/10 03:00:28;;;;;;;;;;;;;;;;;;5025662;28;43115;-82
2023/03/10 03:02:54;;;;;;;;;;;;;;;;;;5026645;28;43087;-81
2023/03/10 03:05:20;;;;;;;;;;;;;;;;;;5026580;28;42918;-81
2023/03/10 03:07:46;;;;;;;;;;;;;;;;;;5026907;28;43089;-81
2023/03/10 03:10:12;;;;;;;;;;;;;;;;;;5027231;28;42930;-81
2023/03/10 03:12:37;;;;;;;;;;;18.40;83.40;;;;;;5020256;28;44595;-81
2023/03/10 03:15:03;;;;;;;;;;;;;;;;;;5006839;28;42881;-81
2023/03/10 03:17:29;;;;;;;;;;;;;;;;;;5007281;28;43739;-80
2023/03/10 03:19:55;;;;;;;;;;;17.70;81.10;;;;;;5007506;28;42828;-79
2023/03/10 03:22:20;;;;;;;;;;;18.30;80.40;;;;;;5006849;28;43674;-80
2023/03/10 03:24:46;;;;;;;;;;;18.40;80.20;;;;;;5007134;28;42916;-79
2023/03/10 03:27:11;;;;;;;;;;;18.40;80.30;;;;;;5006966;28;43717;-79
2023/03/10 03:29:37;;;;;;;;;;;18.30;80.20;;;;;;5011793;28;42936;-82
2023/03/10 03:32:02;;;;;;;;;;;18.40;79.60;;;;;;5014688;28;45588;-84
2023/03/10 03:34:28;;;;;;;;;;;18.40;80.00;;;;;;5006382;28;42956;-85
2023/03/10 03:36:53;;;;;;;;;;;18.20;80.10;;;;;;5005099;28;42955;-85
2023/03/10 03:39:19;;;;;;;;;;;18.40;80.10;;;;;;5017084;28;42908;-84
2023/03/10 03:41:45;;;;;;;;;;;18.50;80.20;;;;;;5025970;28;43023;-85
2023/03/10 03:44:10;;;;;;;;;;;18.40;80.10;;;;;;5025320;28;43026;-81
2023/03/10 03:46:36;;;;;;;;;;;18.40;80.10;;;;;;5023078;28;43602;-86
2023/03/10 03:49:02;;;;;;;;;;;18.40;79.50;;;;;;5023262;28;43040;-85
2023/03/10 03:51:27;;;;;;;;;;;18.40;79.40;;;;;;5024623;28;43863;-83
2023/03/10 03:53:52;;;;;;;;;;;18.40;80.10;;;;;;5025906;28;42954;-83
2023/03/10 03:56:18;;;;;;;;;;;18.40;80.10;;;;;;5025598;28;43038;-84
2023/03/10 03:58:44;;;;;;;;;;;18.40;80.00;;;;;;5008802;28;42947;-81
2023/03/10 04:01:09;;;;;;;;;;;18.40;79.30;;;;;;5005541;28;43128;-81
2023/03/10 04:03:35;;;;;;;;;;;18.40;79.90;;;;;;5005818;28;42971;-81
2023/03/10 04:06:00;;;;;;;;;;;18.30;79.90;;;;;;5005962;28;43610;-80
2023/03/10 04:08:26;;;;;;;;;;;18.40;79.40;;;;;;5004329;28;43234;-82
2023/03/10 04:10:52;;;;;;;;;;;18.40;79.70;;;;;;5004913;28;44755;-82
2023/03/10 04:13:18;;;;;;;;;;;18.40;80.00;;;;;;5008974;28;42794;-82
2023/03/10 04:15:44;;;;;;;;;;;18.30;80.00;;;;;;5021231;28;43134;-82
2023/03/10 04:18:09;;;;;;;;;;;18.40;80.00;;;;;;5021227;28;42942;-83
2023/03/10 04:20:35;;;;;;;;;;;18.30;80.10;;;;;;5024859;28;42816;-83
2023/03/10 04:23:01;;;;;;;;;;;18.50;80.20;;;;;;5024904;28;42869;-82
2023/03/10 04:25:26;;;;;;;;;;;18.40;80.00;;;;;;5023556;28;43824;-83
2023/03/10 04:27:52;;;;;;;;;;;18.40;79.70;;;;;;5022966;28;42863;-83
2023/03/10 04:30:17;;;;;;;;;;;18.60;80.20;;;;;;5024717;28;42883;-83
2023/03/10 04:32:43;;;;;;;;;;;18.40;80.00;;;;;;5022623;28;43144;-82
2023/03/10 04:35:11;;;;;;;;;;;18.40;80.10;;;;;;5024484;28;43818;-83
2023/03/10 04:37:37;;;;;;;;;;;18.50;80.10;;;;;;5021836;28;42923;-83
2023/03/10 04:40:07;;;;;;;;;;;18.60;80.10;;;;;;5004351;28;43797;-83
2023/03/10 04:42:32;;;;;;;;;;;18.50;80.00;;;;;;5012168;28;43030;-83
2023/03/10 04:44:58;;;;;;;;;;;18.40;80.20;;;;;;5025342;28;43042;-82
2023/03/10 04:47:23;;;;;;;;;;;18.60;80.30;;;;;;5022883;28;43071;-83
2023/03/10 04:49:49;;;;;;;;;;;18.40;79.70;;;;;;5024846;28;43984;-83
2023/03/10 04:52:14;;;;;;;;;;;18.50;80.50;;;;;;5024065;28;43043;-84
2023/03/10 04:54:40;;;;;;;;;;;18.50;79.90;;;;;;5024745;28;43773;-83
2023/03/10 04:57:05;;;;;;;;;;;18.50;80.00;;;;;;5023144;28;42949;-83
2023/03/10 04:59:31;;;;;;;;;;;18.50;80.60;;;;;;5006547;28;42975;-83
2023/03/10 05:01:56;;;;;;;;;;;18.40;80.00;;;;;;5003583;28;42790;-84
2023/03/10 05:04:22;;;;;;;;;;;18.60;82.10;;;;;;5003279;28;44842;-83
2023/03/10 05:06:48;;;;;;;;;;;;;;;;;;5007677;28;42980;-82
2023/03/10 05:09:13;;;;;;;;;;;18.50;80.20;;;;;;5021254;28;44768;-83
2023/03/10 05:11:39;;;;;;;;;;;18.50;80.20;;;;;;5019586;28;42860;-83
2023/03/10 05:14:05;;;;;;;;;;;;;;;;;;5022689;28;44715;-83
2023/03/10 05:16:30;;;;;;;;;;;18.50;80.40;;;;;;5019127;28;42910;-84
2023/03/10 05:18:56;;;;;;;;;;;18.50;80.00;;;;;;5019413;28;45009;-85
2023/03/10 05:21:22;;;;;;;;;;;;;;;;;;5014699;28;42912;-84
2023/03/10 05:23:48;;;;;;;;;;;18.60;79.70;;;;;;5004601;28;43856;-83
2023/03/10 05:26:13;;;;;;;;;;;18.50;80.80;;;;;;5006027;28;43254;-83
2023/03/10 05:28:39;;;;;;;;;;;18.50;80.40;;;;;;5005388;28;43002;-83
2023/03/10 05:31:09;;;;;;;;;;;18.50;80.40;;;;;;5016526;28;43058;-85
2023/03/10 05:33:35;;;;;;;;;;;18.60;79.70;;;;;;5023346;28;42817;-85
2023/03/10 05:36:03;;;;;;;;;;;18.50;80.40;;;;;;5020326;28;42988;-85
2023/03/10 05:38:28;;;;;;;;;;;18.70;81.20;;;;;;5023808;28;43093;-84
2023/03/10 05:40:55;;;;;;;;;;;18.50;80.40;;;;;;5024432;28;43118;-85
2023/03/10 05:43:20;;;;;;;;;;;18.60;81.30;;;;;;5022108;28;45386;-84
2023/03/10 05:51:58;;;;;;;;;;;18.60;79.70;;;;;;5007668;28;43241;-85
2023/03/10 05:54:24;;;;;;;;;;;18.70;79.80;;;;;;5018063;28;45073;-85
2023/03/10 05:56:50;;;;;;;;;;;18.50;79.10;;;;;;5017196;28;43108;-85
2023/03/10 05:59:16;;;;;;;;;;;18.30;78.90;;;;;;5019548;28;44742;-85
2023/03/10 06:01:42;;;;;;;;;;;;;;;;;;5011522;28;43033;-84
2023/03/10 06:04:07;;;;;;;;;;;;;;;;;;5014339;28;44733;-87
2023/03/10 06:06:33;;;;;;;;;;;;;;;;;;5015935;28;43121;-86
2023/03/10 06:08:59;;;;;;;;;;;;;;;;;;5018894;28;44926;-84
2023/03/10 06:11:25;;;;;;;;;;;;;;;;;;5023051;28;43252;-86
2023/03/10 06:13:51;;;;;;;;;;;;;;;;;;5021986;28;43122;-84
2023/03/10 06:16:17;;;;;;;;;;;;;;;;;;5018769;28;43029;-83
2023/03/10 06:18:43;;;;;;;;;;;;;;;;;;5004586;28;43520;-84
2023/03/10 06:21:12;;;;;;;;;;;17.80;81.00;;;;;;5004300;28;42868;-84
2023/03/10 06:23:38;;;;;;;;;;;17.90;79.60;;;;;;5004569;28;43601;-84
2023/03/10 06:26:05;;;;;;;;;;;17.90;80.40;;;;;;5014558;28;43029;-88
2023/03/10 06:28:31;;;;;;;;;;;;;;;;;;5026438;28;42966;-86
2023/03/10 06:30:58;;;;;;;;;;;17.80;80.40;;;;;;5021403;28;42934;-89
2023/03/10 06:33:24;;;;;;;;;;;;;;;;;;5011224;28;43283;-88
2023/03/10 06:35:49;;;;;;;;;;;;;;;;;;5016415;28;42921;-84
2023/03/10 06:38:15;;;;;;;;;;;;;;;;;;5024928;28;43506;-81
2023/03/10 06:40:41;;;;;;;;;;;;;;;;;;5026006;28;42915;-82
2023/03/10 06:43:07;;;;;;;;;;;;;;;;;;5006639;28;43780;-83
2023/03/10 06:45:33;;;;;;;;;;;;;;;;;;5007863;28;42991;-83
2023/03/10 06:47:59;;;;;;;;;;;;;;;;;;5006064;28;43016;-83
2023/03/10 06:50:25;;;;;;;;;;;;;;;;;;5007796;28;42939;-82
2023/03/10 06:52:51;;;;;;;;;;;;;;;;;;5007226;28;43060;-83
2023/03/10 06:55:16;;;;;;;;;;;;;;;;;;5007173;28;42777;-83
2023/03/10 06:57:42;;;;;;;;;;;17.60;79.70;;;;;;5007486;28;42987;-82
2023/03/10 07:00:10;;;;;;;;;;;;;;;;;;5007471;28;42746;-82
2023/03/10 07:02:45;;;;;;;;;;;17.60;79.80;;;;;;5007575;28;44091;-83
2023/03/10 07:05:11;;;;;;;;;;;17.60;79.10;;;;;;5005770;28;43060;-82
2023/03/10 07:07:39;;;;;;;;;;;17.60;81.20;;;;;;5007060;28;43370;-82
2023/03/10 07:10:08;;;;;;;;;;;;;;;;;;5005597;28;43366;-82
2023/03/10 07:12:34;;;;;;;;;;;17.60;77.30;;;;;;5006802;28;42849;-82
2023/03/10 07:14:59;;;;;;;;;;;17.50;78.60;;;;;;5007024;28;43037;-82
2023/03/10 07:17:25;;;;;;;;;;;17.60;78.60;;;;;;5007052;28;42948;-82
2023/03/10 07:19:50;;;;;;;;;;;17.70;78.70;;;;;;5007427;28;43020;-82
2023/03/10 07:22:16;;;;;;;;;;;17.60;78.60;;;;;;5006978;28;43046;-83
2023/03/10 07:24:41;;;;;;;;;;;17.50;78.80;;;;;;5006884;28;42913;-82
2023/03/10 07:27:07;;;;;;;;;;;17.60;78.90;;;;;;5006857;28;43848;-83
2023/03/10 07:29:32;;;;;;;;;;;17.70;78.90;;;;;;5006866;28;43078;-83
2023/03/10 07:31:58;;;;;;;;;;;17.80;78.90;;;;;;5006772;28;43728;-82
2023/03/10 07:34:23;;;;;;;;;;;17.50;78.30;;;;;;5006556;28;43025;-83
2023/03/10 07:36:49;;;;;;;;;;;17.50;79.00;;;;;;5006768;28;43109;-83
2023/03/10 07:39:14;;;;;;;;;;;17.50;78.90;;;;;;5006091;28;42994;-83
2023/03/10 07:41:40;;;;;;;;;;;17.60;78.40;;;;;;5006528;28;43793;-84
2023/03/10 07:44:05;;;;;;;;;;;17.60;78.30;;;;;;5006640;28;42849;-83
2023/03/10 07:46:31;;;;;;;;;;;17.50;78.40;;;;;;5006318;28;43607;-83
2023/03/10 07:48:59;;;;;;;;;;;17.60;79.00;;;;;;5006413;28;42743;-83
2023/03/10 07:51:25;;;;;;;;;;;17.60;78.50;;;;;;5023042;28;42970;-81
2023/03/10 07:53:51;;;;;;;;;;;17.50;78.90;;;;;;5035290;28;42851;-82
2023/03/10 07:56:16;;;;;;;;;;;17.40;78.80;;;;;;5032776;28;42949;-82
2023/03/10 07:58:42;;;;;;;;;;;17.60;78.80;;;;;;5035524;28;42951;-82
2023/03/10 08:01:08;;;;;;;;;;;17.70;78.80;;;;;;5034600;28;43569;-82
2023/03/10 08:03:33;;;;;;;;;;;17.60;78.80;;;;;;5045748;28;42930;-79
2023/03/10 08:05:59;;;;;;;;;;;17.60;79.40;;;;;;5034300;28;42927;-80
2023/03/10 08:08:24;;;;;;;;;;;17.60;79.70;;;;;;5034510;28;43053;-79
2023/03/10 08:10:58;;;;;;;;;;;17.40;80.20;;;;;;5034814;28;43012;-82
2023/03/10 08:13:24;;;;;;;;;;;17.60;80.40;;;;;;5032744;28;43074;-80
2023/03/10 08:15:49;;;;;;;;;;;17.50;74.80;;;;;;5038001;28;43632;-85
2023/03/10 08:18:15;;;;;;;;;;;17.60;74.60;;;;;;5044687;28;43001;-85
2023/03/10 08:20:40;;;;;;;;;;;17.40;74.00;;;;;;5045143;28;42847;-82
2023/03/10 08:23:06;;;;;;;;;;;17.60;74.00;;;;;;5045946;28;42984;-79
2023/03/10 08:25:32;;;;;;;;;;;17.60;73.20;;;;;;5045872;28;42771;-81
2023/03/10 08:27:57;;;;;;;;;;;17.60;73.90;;;;;;5046242;28;42973;-82
2023/03/10 08:30:23;;;;;;;;;;;17.60;74.30;;;;;;5045914;28;42939;-82
2023/03/10 08:32:48;;;;;;;;;;;17.40;74.30;;;;;;5045783;28;43082;-78
2023/03/10 08:35:14;;;;;;;;;;;17.60;74.70;;;;;;5039790;28;43753;-81
2023/03/10 08:37:39;;;;;;;;;;;17.40;74.60;;;;;;5023687;28;43827;-80
2023/03/10 08:40:06;;;;;;;;;;;17.60;74.80;;;;;;5030088;28;43529;-79
2023/03/10 08:42:35;;;;;;;;;;;17.50;74.50;;;;;;5045221;28;42937;-83
2023/03/10 08:45:00;;;;;;;;;;;17.60;74.50;;;;;;5032886;28;42972;-80
2023/03/10 08:47:26;;;;;;;;;;;17.70;74.60;;;;;;5040861;28;43009;-79
2023/03/10 08:49:51;;;;;;;;;;;17.40;74.10;;;;;;5027529;28;42815;-84
2023/03/10 08:52:17;;;;;;;;;;;17.60;74.20;;;;;;5020656;28;42967;-82
2023/03/10 08:54:42;;;;;;;;;;;17.50;73.90;;;;;;5013014;28;43221;-81
2023/03/10 08:57:08;;;;;;;;;;;17.50;73.80;;;;;;5020763;28;43040;-83
2023/03/10 08:59:33;;;;;;;;;;;17.50;74.10;;;;;;5016323;28;43442;-83
2023/03/10 09:01:59;;;;;;;;;;;17.60;74.10;;;;;;5028059;28;42926;-81
2023/03/10 09:04:25;;;;;;;;;;;17.60;74.20;;;;;;5030361;28;43020;-83
2023/03/10 09:06:50;;;;;;;;;;;17.90;74.40;;;;;;5034631;28;42926;-79
2023/03/10 09:09:15;;;;;;;;;;;17.70;74.50;;;;;;5027135;28;42941;-79
2023/03/10 09:11:41;;;;;;;;;;;17.70;74.80;;;;;;5019609;28;42987;-80
2023/03/10 09:14:08;;;;;;;;;;;17.40;74.70;;;;;;5036051;28;43745;-79
2023/03/10 09:16:34;;;;;;;;;;;17.80;75.20;;;;;;5028537;28;42886;-81
2023/03/10 09:19:00;;;;;;;;;;;17.60;75.10;;;;;;5037300;28;42905;-81
2023/03/10 09:21:27;;;;;;;;;;;17.70;75.00;;;;;;5025031;28;42766;-81
2023/03/10 09:23:52;;;;;;;;;;;17.70;74.80;;;;;;5024403;28;42985;-82
2023/03/10 09:26:18;;;;;;;;;;;17.80;74.60;;;;;;5024192;28;43375;-81
2023/03/10 09:28:44;;;;;;;;;;;17.70;74.30;;;;;;5024882;28;42992;-81
2023/03/10 09:31:14;;;;;;;;;;;17.70;74.00;;;;;;5025357;28;42790;-81
2023/03/10 09:33:40;;;;;;;;;;;17.60;73.90;;;;;;5024825;28;43660;-81
2023/03/10 09:36:12;;;;;;;;;;;17.80;74.20;;;;;;5026753;28;43452;-79
2023/03/10 09:38:37;;;;;;;;;;;17.50;73.80;;;;;;5022608;28;43409;-80
2023/03/10 09:41:21;;;;;;;;;;;17.70;73.90;;;;;;5022846;28;43374;-82
2023/03/10 09:44:10;;;;;;;;;;;18.00;73.30;;;;;;5024357;28;43589;-82
2023/03/10 09:46:49;;;;;;;;;;;18.10;73.40;;;;;;5021491;28;42961;-81
2023/03/10 09:49:25;;;;;;;;;;;18.00;73.20;;;;;;5024694;28;42975;-81
2023/03/10 09:51:50;;;;;;;;;;;18.40;73.20;;;;;;5024071;28;42983;-81
2023/03/10 09:54:32;;;;;;;;;;;18.10;73.70;;;;;;5024455;28;42894;-82
2023/03/10 09:56:58;;;;;;;;;;;18.30;73.10;;;;;;5023821;28;43117;-81
2023/03/10 09:59:36;;;;;;;;;;;18.10;73.60;;;;;;5024562;28;43465;-81
2023/03/10 10:02:14;;;;;;;;;;;18.10;72.90;;;;;;5025698;28;43079;-82
2023/03/10 10:04:40;;;;;;;;;;;18.10;73.30;;;;;;5028102;28;42887;-82
2023/03/10 10:07:13;;;;;;;;;;;18.30;73.20;;;;;;5028211;28;42732;-82
2023/03/10 10:09:42;;;;;;;;;;;18.20;72.90;;;;;;5028412;28;42939;-82
2023/03/10 10:12:15;;;;;;;;;;;18.20;72.00;;;;;;5027766;28;42825;-82
2023/03/10 10:14:40;;;;;;;;;;;18.50;71.90;;;;;;5027911;28;43621;-82
2023/03/10 10:17:09;;;;;;;;;;;18.30;72.30;;;;;;5027855;28;42975;-82
2023/03/10 10:19:35;;;;;;;;;;;18.50;71.70;;;;;;5027027;28;43037;-82
2023/03/10 10:22:01;;;;;;;;;;;18.40;72.20;;;;;;5027655;28;43067;-82
2023/03/10 10:24:26;;;;;;;;;;;18.50;72.20;;;;;;5027896;28;42991;-82
2023/03/10 10:26:52;;;;;;;;;;;18.40;72.00;;;;;;5027914;28;42891;-82
2023/03/10 10:29:21;;;;;;;;;;;18.40;71.90;;;;;;5027703;28;44047;-82
2023/03/10 10:32:12;;;;;;;;;;;18.40;72.00;;;;;;5027729;28;42966;-82
2023/03/10 10:34:39;;;;;;;;;;;18.60;71.40;;;;;;5025869;28;43567;-82
2023/03/10 10:37:24;;;;;;;;;;;18.30;71.90;;;;;;5025383;28;43064;-81
2023/03/10 10:39:50;;;;;;;;;;;18.30;71.30;;;;;;5027502;28;43487;-81
2023/03/10 10:42:24;;;;;;;;;;;18.40;72.00;;;;;;5027606;28;43085;-81
2023/03/10 10:44:53;;;;;;;;;;;18.40;71.30;;;;;;5027320;28;42938;-81
2023/03/10 10:47:28;;;;;;;;;;;18.50;71.90;;;;;;5027224;28;42975;-81
2023/03/10 10:49:54;;;;;;;;;;;18.40;71.10;;;;;;5026480;28;43296;-81
2023/03/10 10:52:24;;;;;;;;;;;18.50;71.60;;;;;;5027065;28;42899;-82
2023/03/10 10:54:55;;;;;;;;;;;18.00;70.60;;;;;;5041888;28;44798;-81
2023/03/10 10:57:22;;;;;;;;;;;18.40;71.70;;;;;;5026852;28;42983;-81
2023/03/10 10:59:53;;;;;;;;;;;18.30;71.60;;;;;;5027065;28;42844;-81
2023/03/10 11:02:30;;;;;;;;;;;18.60;71.70;;;;;;5026011;28;43059;-81
2023/03/10 11:05:06;;;;;;;;;;;18.50;71.10;;;;;;5027464;28;43010;-81
2023/03/10 11:07:31;;;;;;;;;;;18.50;71.60;;;;;;5027307;28;43011;-82
2023/03/10 11:09:57;;;;;;;;;;;18.60;71.50;;;;;;5027350;28;43498;-82
2023/03/10 11:12:26;;;;;;;;;;;18.40;71.40;;;;;;5026737;28;42954;-81
2023/03/10 11:15:00;;;;;;;;;;;18.40;71.30;;;;;;5026666;28;43509;-81
2023/03/10 11:17:44;;;;;;;;;;;18.00;70.50;;;;;;5026836;28;42877;-83
2023/03/10 11:20:28;;;;;;;;;;;18.30;70.70;;;;;;5026704;28;43013;-81
2023/03/10 11:22:59;;;;;;;;;;;18.60;70.80;;;;;;5027124;28;43161;-81
2023/03/10 11:25:35;;;;;;;;;;;18.50;71.30;;;;;;5026040;28;43007;-83
2023/03/10 11:28:20;;;;;;;;;;;19.60;71.40;;;;;;5024781;28;42942;-81
2023/03/10 11:30:50;;;;;;;;;;;18.50;70.70;;;;;;5026560;28;42975;-82
2023/03/10 11:33:44;;;;;;;;;;;18.40;71.30;;;;;;5026158;28;42798;-80
2023/03/10 11:36:37;;;;;;;;;;;18.30;70.10;;;;;;5026446;28;43004;-83
2023/03/10 11:39:28;;;;;;;;;;;18.50;70.10;;;;;;5026660;28;43625;-82
2023/03/10 11:42:16;;;;;;;;;;;18.40;71.50;;;;;;5026105;28;43659;-83
2023/03/10 11:45:03;;;;;;;;;;;18.70;71.00;;;;;;5022872;28;43033;-81
2023/03/10 11:47:48;;;;;;;;;;;19.40;71.50;;;;;;5024627;28;43534;-82
2023/03/10 11:50:13;;;;;;;;;;;18.50;71.00;;;;;;5026401;28;43023;-83
2023/03/10 11:52:39;;;;;;;;;;;18.50;71.60;;;;;;5026291;28;44057;-83
2023/03/10 11:55:10;;;;;;;;;;;18.40;71.50;;;;;;5025538;28;42968;-84
2023/03/10 11:57:40;;;;;;;;;;;18.40;71.60;;;;;;5025850;28;42962;-84
2023/03/10 12:00:07;;;;;;;;;;;18.40;71.60;;;;;;5031197;28;42930;-83
2023/03/10 12:02:36;;;;;;;;;;;18.40;71.60;;;;;;5045251;28;43946;-83
2023/03/10 12:05:02;;;;;;;;;;;18.40;71.50;;;;;;5037621;28;43264;-84
2023/03/10 12:07:33;;;;;;;;;;;18.40;71.60;;;;;;5029793;28;43567;-82
2023/03/10 12:10:01;;;;;;;;;;;18.50;70.90;;;;;;5034333;28;43101;-82
2023/03/10 12:12:29;;;;;;;;;;;18.40;71.50;;;;;;5032595;28;42934;-83
2023/03/10 12:14:57;;;;;;;;;;;18.40;71.40;;;;;;5031777;28;42998;-82
2023/03/10 12:17:23;;;;;;;;;;;18.50;72.10;;;;;;5034154;28;42871;-82
2023/03/10 12:20:14;;;;;;;;;;;18.30;72.50;;;;;;5029390;28;43005;-82
2023/03/10 12:22:45;;;;;;;;;;;18.40;71.10;;;;;;5031923;28;43072;-82
2023/03/10 12:25:36;;;;;;;;;;;18.40;71.70;;;;;;5039280;28;43761;-83
2023/03/10 12:28:21;;;;;;;;;;;18.60;72.50;;;;;;5034448;28;43567;-83
2023/03/10 12:31:10;;;;;;;;;;;18.60;72.70;;;;;;5004209;28;42989;-82
2023/03/10 12:33:36;;;;;;;;;;;18.50;72.90;;;;;;5002609;28;43073;-81
2023/03/10 12:36:15;;;;;;;;;;;18.50;74.00;;;;;;5003729;28;59731;-82
2023/03/10 12:38:41;;;;;;;;;;;18.40;73.80;;;;;;5004149;28;43963;-82
2023/03/10 12:41:07;;;;;;;;;;;18.10;74.40;;;;;;5018910;28;43040;-82
2023/03/10 12:43:45;;;;;;;;;;;18.50;75.20;;;;;;5004607;28;42935;-82
2023/03/10 12:46:14;;;;;;;;;;;18.40;74.10;;;;;;5005203;28;43397;-80
2023/03/10 12:48:42;;;;;;;;;;;18.50;75.60;;;;;;5003907;28;43703;-81
2023/03/10 12:51:13;;;;;;;;;;;18.60;75.30;;;;;;5002780;28;43008;-80
2023/03/10 12:53:45;;;;;;;;;;;18.40;75.00;;;;;;5003958;28;43911;-84
2023/03/10 12:56:11;;;;;;;;;;;18.50;74.10;;;;;;5004412;28;43016;-81
2023/03/10 12:58:38;;;;;;;;;;;18.60;74.60;;;;;;5015925;28;43437;-80
2023/03/10 13:01:06;;;;;;;;;;;18.70;74.60;;;;;;5005565;28;43015;-80
2023/03/10 13:03:51;;;;;;;;;;;18.50;74.50;;;;;;5005434;28;42736;-80
2023/03/10 13:06:32;;;;;;;;;;;18.60;73.30;;;;;;5005304;28;43166;-84
2023/03/10 13:09:09;;;;;;;;;;;18.50;73.20;;;;;;5005317;28;42979;-80
2023/03/10 13:11:42;;;;;;;;;;;18.50;72.80;;;;;;5005232;28;42916;-80
2023/03/10 13:14:15;;;;;;;;;;;18.50;72.70;;;;;;5007164;28;43029;-80
2023/03/10 13:16:50;;;;;;;;;;;18.40;72.50;;;;;;5024035;28;42986;-81
2023/03/10 13:19:20;;;;;;;;;;;18.40;73.60;;;;;;5018740;28;43303;-80
2023/03/10 13:21:47;;;;;;;;;;;18.50;73.60;;;;;;5007566;28;43033;-80
2023/03/10 13:24:19;;;;;;;;;;;18.80;74.50;;;;;;5005086;28;43092;-79
2023/03/10 13:26:44;;;;;;;;;;;18.50;73.50;;;;;;5004671;28;42928;-80
2023/03/10 13:29:15;;;;;;;;;;;18.60;74.70;;;;;;5012638;28;42872;-80
2023/03/10 13:31:50;;;;;;;;;;;18.60;74.00;;;;;;5024674;28;42892;-81
2023/03/10 13:34:19;;;;;;;;;;;18.40;73.90;;;;;;5024365;28;43744;-78
2023/03/10 13:36:45;;;;;;;;;;;18.40;73.80;;;;;;5023874;28;42920;-78
2023/03/10 13:39:24;;;;;;;;;;;18.40;73.80;;;;;;5024866;28;42889;-79
2023/03/10 13:41:51;;;;;;;;;;;18.40;73.20;;;;;;5024989;28;43066;-79
2023/03/10 13:44:16;;;;;;;;;;;18.50;74.00;;;;;;5024236;28;43585;-79
2023/03/10 13:46:45;;;;;;;;;;;18.50;73.60;;;;;;5017791;28;42989;-79
2023/03/10 13:49:13;;;;;;;;;;;18.40;73.60;;;;;;5048409;28;45407;-79
2023/03/10 13:51:38;;;;;;;;;;;18.40;72.90;;;;;;5042200;28;42971;-79
2023/03/10 13:54:10;;;;;;;;;;;18.60;73.70;;;;;;5035402;28;43430;-78
2023/03/10 13:56:37;;;;;;;;;;;18.40;72.20;;;;;;5028501;28;43044;-78
2023/03/10 13:59:05;;;;;;;;;;;18.50;73.50;;;;;;5024265;28;45238;-78
2023/03/10 14:01:33;;;;;;;;;;;18.50;73.50;;;;;;5012163;28;43180;-80
2023/03/10 14:04:01;;;;;;;;;;;18.40;73.10;;;;;;5011962;28;43700;-80
2023/03/10 14:06:29;;;;;;;;;;;18.50;73.30;;;;;;5011720;28;43057;-82
2023/03/10 14:09:10;;;;;;;;;;;18.00;73.00;;;;;;5010145;28;42981;-81
2023/03/10 14:11:41;;;;;;;;;;;18.40;73.20;;;;;;5010470;28;42999;-80
2023/03/10 14:14:08;;;;;;;;;;;18.40;71.80;;;;;;5012338;28;43422;-79
2023/03/10 14:16:53;;;;;;;;;;;18.50;73.00;;;;;;5013418;28;42972;-79
2023/03/10 14:19:37;;;;;;;;;;;18.50;71.80;;;;;;5039113;28;44287;-84
2023/03/10 14:22:18;;;;;;;;;;;18.50;71.70;;;;;;5043517;28;42895;-80
2023/03/10 14:24:44;;;;;;;;;;;18.50;72.90;;;;;;5043178;28;43584;-84
2023/03/10 14:27:10;;;;;;;;;;;18.50;72.90;;;;;;5043480;28;43045;-85
2023/03/10 14:29:36;;;;;;;;;;;18.50;72.80;;;;;;5023970;28;43187;-83
2023/03/10 14:32:01;;;;;;;;;;;18.40;72.60;;;;;;5025782;28;43230;-81
2023/03/10 14:34:26;;;;;;;;;;;18.70;73.10;;;;;;5032885;28;43033;-84
2023/03/10 14:36:52;;;;;;;;;;;18.20;72.80;;;;;;5043716;28;42998;-85
2023/03/10 14:39:18;;;;;;;;;;;18.40;72.80;;;;;;5043348;28;43386;-85
2023/03/10 14:41:44;;;;;;;;;;;18.50;72.60;;;;;;5043543;28;42896;-85
2023/03/10 14:44:09;;;;;;;;;;;18.20;72.50;;;;;;5022969;28;43026;-84